createdAt,value
2022-12-08T00:01:21.971Z,100039.94
2022-12-08T00:03:50.185Z,100037.34
2022-12-08T00:06:42.208Z,100028.84
2022-12-08T00:09:23.742Z,100037.28
2022-12-08T00:11:53.047Z,100034.69
2022-12-08T00:14:25.304Z,100035.56
2022-12-08T00:16:53.229Z,100028.72
2022-12-08T00:19:21.333Z,100021.94
2022-12-08T00:21:49.172Z,100031.34
2022-12-08T00:24:16.859Z,100021.00
2022-12-08T00:26:44.635Z,100015.84
2022-12-08T00:29:17.155Z,100013.28
2022-12-08T00:31:46.733Z,100017.63
2022-12-08T00:34:14.758Z,100014.28
2022-12-08T00:36:42.553Z,100010.88
2022-12-08T00:39:14.739Z,100005.69
2022-12-08T00:42:00.138Z,100007.38
2022-12-08T00:44:27.957Z,100003.06
2022-12-08T00:46:57.912Z,100004.78
2022-12-08T00:49:25.961Z,99997.09
2022-12-08T00:51:53.649Z,99998.84
2022-12-08T00:54:22.878Z,99992.00
2022-12-08T00:56:50.965Z,99987.72
2022-12-08T00:59:19.240Z,99997.09
2022-12-08T01:01:48.361Z,99987.72
2022-12-08T01:04:20.075Z,99978.13
2022-12-08T01:06:48.676Z,99984.22
2022-12-08T01:09:17.950Z,99977.88
2022-12-08T01:11:46.810Z,99975.63
2022-12-08T01:14:15.252Z,99972.88
2022-12-08T01:16:43.379Z,99973.91
2022-12-08T01:19:13.233Z,99968.00
2022-12-08T01:21:42.881Z,99973.22
2022-12-08T01:24:12.365Z,99977.59
2022-12-08T01:26:40.233Z,99973.09
2022-12-08T01:29:08.089Z,99972.97
2022-12-08T01:31:35.820Z,99971.38
2022-12-08T01:34:03.560Z,99968.09
2022-12-08T01:36:33.508Z,99977.53
2022-12-08T01:39:03.075Z,99974.84
2022-12-08T01:41:33.537Z,99979.16
2022-12-08T01:44:04.239Z,99974.00
2022-12-08T01:46:33.941Z,99975.78
2022-12-08T01:49:06.433Z,99984.53
2022-12-08T01:51:39.400Z,99976.75
2022-12-08T01:54:09.072Z,99973.22
2022-12-08T01:56:41.613Z,99969.56
2022-12-08T01:59:11.868Z,99966.03
2022-12-08T02:01:39.977Z,99961.84
2022-12-08T02:04:08.155Z,99963.13
2022-12-08T02:06:40.781Z,99961.66
2022-12-08T02:09:10.047Z,99957.56
2022-12-08T02:11:37.889Z,99955.91
2022-12-08T02:14:09.645Z,99953.38
2022-12-08T02:16:46.493Z,99953.94
2022-12-08T02:19:44.646Z,99958.06
2022-12-08T02:22:15.922Z,99942.81
2022-12-08T02:24:51.750Z,99952.25
2022-12-08T02:27:33.679Z,99946.97
2022-12-08T02:30:27.276Z,99944.59
2022-12-08T02:33:34.533Z,99943.72
2022-12-08T02:36:12.625Z,99937.66
2022-12-08T02:38:49.076Z,99939.41
2022-12-08T02:41:30.271Z,99929.09
2022-12-08T02:44:05.359Z,99935.19
2022-12-08T02:46:38.445Z,99923.94
2022-12-08T02:49:08.168Z,99929.16
2022-12-08T02:51:37.740Z,99930.13
2022-12-08T02:54:05.917Z,99930.88
2022-12-08T02:56:46.845Z,99922.91
2022-12-08T02:59:26.633Z,99918.88
2022-12-08T03:02:11.188Z,99917.34
2022-12-08T03:04:47.070Z,99913.81
2022-12-08T03:07:24.928Z,99918.97
2022-12-08T03:09:58.752Z,99911.66
2022-12-08T03:12:32.310Z,99912.53
2022-12-08T03:15:07.232Z,99906.88
2022-12-08T03:17:37.709Z,99901.78
2022-12-08T03:20:10.653Z,99909.38
2022-12-08T03:22:41.837Z,99905.66
2022-12-08T03:25:11.334Z,99904.81
2022-12-08T03:27:39.404Z,99900.28
2022-12-08T03:30:08.859Z,99894.19
2022-12-08T03:32:42.152Z,99892.84
2022-12-08T03:35:14.870Z,99888.50
2022-12-08T03:37:44.551Z,99888.44
2022-12-08T03:40:15.840Z,99878.34
2022-12-08T03:42:43.932Z,99879.94
2022-12-08T03:45:12.269Z,99876.31
2022-12-08T03:47:40.356Z,99882.78
2022-12-08T03:50:08.953Z,99876.72
2022-12-08T03:52:36.755Z,99870.91
2022-12-08T03:55:07.323Z,99873.34
2022-12-08T03:57:35.138Z,99864.09
2022-12-08T04:00:03.259Z,99869.97
2022-12-08T04:02:32.948Z,99867.44
2022-12-08T04:05:00.680Z,99865.75
2022-12-08T04:07:28.310Z,99872.59
2022-12-08T04:09:56.161Z,99864.91
2022-12-08T04:12:25.332Z,99860.69
2022-12-08T04:14:53.102Z,99861.53
2022-12-08T04:17:20.761Z,99856.38
2022-12-08T04:19:48.487Z,99860.75
2022-12-08T04:22:16.150Z,99862.41
2022-12-08T04:24:44.373Z,99856.44
2022-12-08T04:27:12.013Z,99849.63
2022-12-08T04:29:41.146Z,99849.63
2022-12-08T04:32:09.009Z,99847.91
2022-12-08T04:34:36.652Z,99848.69
2022-12-08T04:37:04.501Z,99844.47
2022-12-08T04:39:32.183Z,99839.25
2022-12-08T04:41:59.821Z,99845.28
2022-12-08T04:44:27.885Z,99840.22
2022-12-08T04:46:57.093Z,99843.66
2022-12-08T04:49:24.788Z,99841.94
2022-12-08T04:51:52.433Z,99839.44
2022-12-08T04:54:21.407Z,99844.59
2022-12-08T04:56:49.052Z,99845.47
2022-12-08T04:59:16.705Z,99843.69
2022-12-08T05:01:44.610Z,99845.38
2022-12-08T05:04:14.075Z,99846.28
2022-12-08T05:06:41.713Z,99834.28
2022-12-08T05:09:10.382Z,99829.94
2022-12-08T05:11:46.954Z,99834.59
2022-12-08T05:14:18.559Z,99831.22
2022-12-08T05:16:47.273Z,99834.09
2022-12-08T05:19:16.815Z,99841.81
2022-12-08T05:21:44.880Z,99842.75
2022-12-08T05:24:12.971Z,99840.97
2022-12-08T05:26:40.690Z,99841.94
2022-12-08T05:29:08.312Z,99850.59
2022-12-08T05:31:36.132Z,99846.41
2022-12-08T05:34:04.203Z,99841.28
2022-12-08T05:36:33.220Z,99836.09
2022-12-08T05:39:00.907Z,99835.19
2022-12-08T05:41:28.716Z,99830.66
2022-12-08T05:43:56.458Z,99821.38
2022-12-08T05:46:24.480Z,99823.22
2022-12-08T05:48:52.238Z,99825.81
2022-12-08T05:51:22.231Z,99828.38
2022-12-08T05:53:52.944Z,99827.53
2022-12-08T05:56:22.729Z,99831.78
2022-12-08T05:58:50.976Z,99826.75
2022-12-08T06:01:23.349Z,99834.38
2022-12-08T06:03:52.041Z,99825.06
2022-12-08T06:06:20.095Z,99828.56
2022-12-08T06:08:47.829Z,99825.06
2022-12-08T06:11:20.821Z,99822.59
2022-12-08T06:13:48.619Z,99826.91
2022-12-08T06:16:16.828Z,99820.97
2022-12-08T06:18:44.713Z,99820.84
2022-12-08T06:21:14.271Z,99820.94
2022-12-08T06:23:42.743Z,99817.34
2022-12-08T06:26:12.985Z,99811.38
2022-12-08T06:28:43.040Z,99811.63
2022-12-08T06:31:14.887Z,99814.22
2022-12-08T06:33:43.136Z,99812.53
2022-12-08T06:36:12.858Z,99814.56
2022-12-08T06:38:43.573Z,99827.63
2022-12-08T06:41:12.593Z,99822.56
2022-12-08T06:43:42.184Z,99821.72
2022-12-08T06:46:11.961Z,99820.25
2022-12-08T06:48:39.652Z,99822.00
2022-12-08T06:51:09.436Z,99823.84
2022-12-08T06:53:37.524Z,99824.63
2022-12-08T06:56:05.766Z,99827.28
2022-12-08T06:58:33.405Z,99825.59
2022-12-08T07:01:08.080Z,99829.81
2022-12-08T07:03:36.799Z,99823.09
2022-12-08T07:06:05.475Z,99828.28
2022-12-08T07:08:33.632Z,99823.03
2022-12-08T07:11:01.404Z,99815.31
2022-12-08T07:13:29.223Z,99817.94
2022-12-08T07:15:56.908Z,99819.63
2022-12-08T07:18:26.112Z,99821.38
2022-12-08T07:20:53.831Z,99822.00
2022-12-08T07:23:21.458Z,99816.75
2022-12-08T07:25:49.077Z,99827.88
2022-12-08T07:28:16.945Z,99830.53
2022-12-08T07:30:45.155Z,99829.44
2022-12-08T07:33:12.805Z,99829.31
2022-12-08T07:35:46.334Z,99826.09
2022-12-08T07:38:16.710Z,99824.53
2022-12-08T07:40:44.316Z,99829.69
2022-12-08T07:43:12.018Z,99826.78
2022-12-08T07:45:41.293Z,99825.31
2022-12-08T07:48:09.101Z,99824.63
2022-12-08T07:50:37.136Z,99824.47
2022-12-08T07:53:06.641Z,99820.19
2022-12-08T07:55:34.766Z,99825.25
2022-12-08T07:58:02.569Z,99819.06
2022-12-08T08:00:30.609Z,99815.63
2022-12-08T08:02:58.395Z,99819.06
2022-12-08T08:05:26.280Z,99815.50
2022-12-08T08:07:54.360Z,99820.44
2022-12-08T08:10:23.504Z,99825.47
2022-12-08T08:12:51.468Z,99819.81
2022-12-08T08:15:21.050Z,99813.88
2022-12-08T08:17:52.037Z,99816.19
2022-12-08T08:20:20.798Z,99818.00
2022-12-08T08:22:49.755Z,99820.69
2022-12-08T08:25:17.929Z,99817.81
2022-12-08T08:27:48.162Z,99821.25
2022-12-08T08:30:20.629Z,99824.75
2022-12-08T08:32:49.657Z,99822.03
2022-12-08T08:35:17.516Z,99823.00
2022-12-08T08:37:48.929Z,99827.31
2022-12-08T08:40:17.740Z,99830.00
2022-12-08T08:42:47.320Z,99830.84
2022-12-08T08:45:15.084Z,99828.13
2022-12-08T08:47:44.671Z,99822.03
2022-12-08T08:50:12.488Z,99822.94
2022-12-08T08:52:40.155Z,99816.84
2022-12-08T08:55:08.289Z,99818.53
2022-12-08T08:57:35.954Z,99817.56
2022-12-08T09:00:06.234Z,99822.66
2022-12-08T09:02:34.096Z,99823.34
2022-12-08T09:05:01.782Z,99819.09
2022-12-08T09:07:29.558Z,99819.81
2022-12-08T09:10:01.657Z,99824.88
2022-12-08T09:12:29.988Z,99809.31
2022-12-08T09:14:57.708Z,99813.50
2022-12-08T09:17:26.701Z,99814.28
2022-12-08T09:19:54.520Z,99812.50
2022-12-08T09:22:23.119Z,99807.34
2022-12-08T09:24:50.824Z,99808.97
2022-12-08T09:27:18.567Z,99805.19
2022-12-08T09:29:46.217Z,99809.28
2022-12-08T09:32:13.887Z,99800.06
2022-12-08T09:34:47.612Z,99801.69
2022-12-08T09:37:18.297Z,99816.22
2022-12-08T09:39:46.004Z,99811.97
2022-12-08T09:42:15.110Z,99799.00
2022-12-08T09:44:55.174Z,99797.19
2022-12-08T09:47:26.720Z,99786.78
2022-12-08T09:50:04.447Z,99786.19
2022-12-08T09:52:36.163Z,99793.28
2022-12-08T09:55:10.815Z,99783.63
2022-12-08T09:57:38.537Z,99788.59
2022-12-08T10:00:08.359Z,99779.97
2022-12-08T10:02:36.291Z,99774.06
2022-12-08T10:05:05.927Z,99767.00
2022-12-08T10:07:40.072Z,99774.72
2022-12-08T10:10:17.771Z,99771.91
2022-12-08T10:12:49.900Z,99766.75
2022-12-08T10:15:33.658Z,99760.50
2022-12-08T10:18:04.460Z,99758.94
2022-12-08T10:20:38.684Z,99756.84
2022-12-08T10:23:14.700Z,99750.50
2022-12-08T10:25:46.329Z,99753.97
2022-12-08T10:28:15.037Z,99752.78
2022-12-08T10:30:43.570Z,99746.25
2022-12-08T10:33:15.849Z,99738.97
2022-12-08T10:35:47.511Z,99740.16
2022-12-08T10:38:22.552Z,99735.50
2022-12-08T10:40:52.907Z,99745.81
2022-12-08T10:43:24.971Z,99731.09
2022-12-08T10:45:53.235Z,99721.63
2022-12-08T10:48:23.754Z,99720.84
2022-12-08T10:50:57.122Z,99712.81
2022-12-08T10:53:27.042Z,99715.56
2022-12-08T10:56:08.555Z,99708.94
2022-12-08T10:58:40.606Z,99708.03
2022-12-08T11:01:35.702Z,99706.44
2022-12-08T11:04:06.201Z,99718.28
2022-12-08T11:06:37.873Z,99703.69
2022-12-08T11:09:22.954Z,99707.09
2022-12-08T11:11:53.614Z,99701.28
2022-12-08T11:14:25.642Z,99697.63
2022-12-08T11:16:55.438Z,99692.09
2022-12-08T11:19:28.304Z,99689.28
2022-12-08T11:21:57.294Z,99689.53
2022-12-08T11:24:27.712Z,99687.41
2022-12-08T11:27:02.310Z,99681.47
2022-12-08T11:29:33.358Z,99681.81
2022-12-08T11:32:05.386Z,99679.09
2022-12-08T11:34:39.745Z,99680.53
2022-12-08T11:37:16.381Z,99671.81
2022-12-08T11:39:49.891Z,99675.28
2022-12-08T11:42:21.945Z,99672.13
2022-12-08T11:44:54.642Z,99670.50
2022-12-08T11:47:27.377Z,99666.81
2022-12-08T11:50:04.997Z,99663.53
2022-12-08T11:52:45.226Z,99657.47
2022-12-08T11:55:33.791Z,99658.50
2022-12-08T11:58:15.606Z,99655.00
2022-12-08T12:00:43.432Z,99651.22
2022-12-08T12:03:24.398Z,99643.56
2022-12-08T12:06:18.593Z,99638.16
2022-12-08T12:09:09.778Z,99637.97
2022-12-08T12:12:04.316Z,99632.81
2022-12-08T12:14:47.786Z,99634.69
2022-12-08T12:17:32.235Z,99631.88
2022-12-08T12:20:11.987Z,99637.97
2022-12-08T12:22:41.686Z,99626.81
2022-12-08T12:25:20.143Z,99626.28
2022-12-08T12:27:49.319Z,99625.03
2022-12-08T12:30:22.431Z,99622.66
2022-12-08T12:32:55.183Z,99621.69
2022-12-08T12:35:31.523Z,99613.34
2022-12-08T12:38:03.903Z,99612.53
2022-12-08T12:40:44.400Z,99618.50
2022-12-08T12:43:29.976Z,99614.44
2022-12-08T12:46:30.975Z,99611.75
2022-12-08T12:49:48.615Z,99611.50
2022-12-08T12:52:45.379Z,99610.03
2022-12-08T12:55:55.077Z,99612.75
2022-12-08T12:58:35.940Z,99611.94
2022-12-08T13:01:41.113Z,99607.94
2022-12-08T13:04:12.401Z,99610.66
2022-12-08T13:06:43.292Z,99607.16
2022-12-08T13:09:23.407Z,99607.31
2022-12-08T13:11:56.720Z,99610.97
2022-12-08T13:14:30.929Z,99604.56
2022-12-08T13:17:01.909Z,99604.75
2022-12-08T13:19:33.231Z,99603.03
2022-12-08T13:22:01.700Z,99601.25
2022-12-08T13:24:33.515Z,99602.00
2022-12-08T13:27:34.042Z,99599.47
2022-12-08T13:30:39.215Z,99592.56
2022-12-08T13:33:19.790Z,99585.69
2022-12-08T13:35:58.547Z,99595.69
2022-12-08T13:38:30.869Z,99591.84
2022-12-08T13:41:02.433Z,99590.22
2022-12-08T13:43:55.511Z,99592.78
2022-12-08T13:56:43.409Z,99585.13
2022-12-08T13:58:05.992Z,99586.81
2022-12-08T14:00:35.527Z,99586.03
2022-12-08T14:03:03.651Z,99579.97
2022-12-08T14:06:10.430Z,99580.38
2022-12-08T14:11:34.806Z,99598.88
2022-12-08T14:14:05.905Z,99603.97
2022-12-08T14:16:40.868Z,99602.34
2022-12-08T14:19:18.149Z,99597.56
2022-12-08T14:21:51.950Z,99600.03
2022-12-08T14:24:19.601Z,99608.63
2022-12-08T14:26:48.238Z,99614.25
2022-12-08T14:29:34.394Z,99606.56
2022-12-08T14:32:03.501Z,99602.22
2022-12-08T14:34:32.850Z,99599.63
2022-12-08T14:37:00.598Z,99605.25
2022-12-08T14:39:28.578Z,99601.03
2022-12-08T14:42:01.115Z,99609.63
2022-12-08T14:44:32.766Z,99596.38
2022-12-08T14:47:06.744Z,99610.56
2022-12-08T14:49:35.935Z,99615.03
2022-12-08T14:52:09.379Z,99608.50
2022-12-08T14:54:37.439Z,99615.69
2022-12-08T14:57:05.627Z,99616.66
2022-12-08T14:59:35.862Z,99614.63
2022-12-08T15:02:22.677Z,99609.75
2022-12-08T15:04:58.918Z,99618.41
2022-12-08T15:07:29.601Z,99604.78
2022-12-08T15:10:22.103Z,99612.50
2022-12-08T15:13:22.571Z,99610.00
2022-12-08T15:15:52.645Z,99616.16
2022-12-08T15:18:29.792Z,99617.25
2022-12-08T15:21:03.469Z,99620.78
2022-12-08T15:23:33.565Z,99618.22
2022-12-08T15:26:01.396Z,99612.81
2022-12-08T15:28:30.776Z,99606.84
2022-12-08T15:30:59.547Z,99614.75
2022-12-08T15:33:28.850Z,99614.81
2022-12-08T15:35:56.666Z,99612.84
2022-12-08T15:38:26.585Z,99609.50
2022-12-08T15:40:55.250Z,99612.19
2022-12-08T15:43:23.897Z,99612.13
2022-12-08T15:45:59.158Z,99614.56
2022-12-08T15:48:30.539Z,99612.84
2022-12-08T15:50:59.496Z,99606.00
2022-12-08T15:53:27.193Z,99610.50
2022-12-08T15:58:58.677Z,99616.06
2022-12-08T16:01:26.762Z,99614.97
2022-12-08T16:09:36.947Z,99618.06
2022-12-08T16:12:23.252Z,99619.13
2022-12-08T16:17:40.264Z,99621.78
2022-12-08T16:20:15.026Z,99620.75
2022-12-08T16:23:08.082Z,99618.09
2022-12-08T16:25:46.033Z,99604.47
2022-12-08T16:28:52.361Z,99618.22
2022-12-08T16:31:13.061Z,99611.44
2022-12-08T16:33:41.995Z,99608.97
2022-12-08T16:36:12.150Z,99607.19
2022-12-08T16:38:39.891Z,99610.69
2022-12-08T16:41:25.196Z,99611.63
2022-12-08T16:43:53.021Z,99612.59
2022-12-08T16:46:23.790Z,99611.91
2022-12-08T16:48:51.835Z,99606.63
2022-12-08T16:51:26.487Z,99608.25
2022-12-08T16:53:56.848Z,99604.81
2022-12-08T16:56:31.937Z,99609.13
2022-12-08T16:59:00.874Z,99607.31
2022-12-08T17:01:29.895Z,99602.22
2022-12-08T17:06:46.736Z,99598.88
2022-12-08T17:09:14.850Z,99600.44
2022-12-08T17:11:43.968Z,99603.09
2022-12-08T17:14:12.897Z,99588.63
2022-12-08T17:16:41.263Z,99589.47
2022-12-08T17:19:09.114Z,99595.50
2022-12-08T17:21:37.079Z,99594.00
2022-12-08T17:24:06.889Z,99595.75
2022-12-08T17:26:35.357Z,99595.94
2022-12-08T17:29:03.555Z,99586.56
2022-12-08T17:31:32.922Z,99590.91
2022-12-08T17:34:01.065Z,99590.25
2022-12-08T17:36:28.898Z,99587.72
2022-12-08T17:38:57.006Z,99585.97
2022-12-08T17:41:26.459Z,99588.56
2022-12-08T17:43:54.211Z,99597.03
2022-12-08T17:46:23.445Z,99591.84
2022-12-08T17:48:51.353Z,99589.41
2022-12-08T17:51:19.083Z,99586.09
2022-12-08T17:53:46.883Z,99582.97
2022-12-08T17:56:16.742Z,99583.91
2022-12-08T17:58:49.886Z,99585.66
2022-12-08T18:01:22.133Z,99586.66
2022-12-08T18:03:49.940Z,99585.94
2022-12-08T18:06:18.384Z,99596.19
2022-12-08T18:09:36.515Z,99587.66
2022-12-08T18:12:04.696Z,99590.19
2022-12-08T18:14:34.078Z,99588.78
2022-12-08T18:17:01.904Z,99593.19
2022-12-08T18:19:29.882Z,99588.91
2022-12-08T18:21:57.630Z,99587.16
2022-12-08T18:24:25.336Z,99590.69
2022-12-08T18:26:53.362Z,99593.28
2022-12-08T18:29:22.362Z,99594.97
2022-12-08T18:31:52.163Z,99593.31
2022-12-08T18:34:19.939Z,99593.44
2022-12-08T18:36:48.511Z,99598.56
2022-12-08T18:39:25.367Z,99595.22
2022-12-08T18:41:53.662Z,99590.97
2022-12-08T18:44:21.657Z,99594.41
2022-12-08T18:46:50.825Z,99589.34
2022-12-08T18:49:20.270Z,99602.13
2022-12-08T18:51:48.514Z,99595.38
2022-12-08T18:54:16.548Z,99592.94
2022-12-08T18:56:44.283Z,99593.94
2022-12-08T18:59:13.792Z,99601.47
2022-12-08T19:01:42.593Z,99595.38
2022-12-08T19:04:28.734Z,99592.03
2022-12-08T19:06:57.759Z,99592.13
2022-12-08T19:09:26.759Z,99598.13
2022-12-08T19:11:54.995Z,99598.25
2022-12-08T19:14:27.864Z,99594.16
2022-12-08T19:16:56.255Z,99599.44
2022-12-08T19:19:25.440Z,99607.31
2022-12-08T19:21:53.752Z,99597.22
2022-12-08T19:24:22.845Z,99598.09
2022-12-08T19:26:50.647Z,99605.03
2022-12-08T19:29:18.568Z,99594.81
2022-12-08T19:31:46.448Z,99598.25
2022-12-08T19:34:14.918Z,99601.50
2022-12-08T19:36:44.018Z,99602.41
2022-12-08T19:39:33.611Z,99606.75
2022-12-08T19:42:19.157Z,99597.38
2022-12-08T19:44:56.319Z,99593.91
2022-12-08T19:47:25.996Z,99596.44
2022-12-08T19:49:55.001Z,99592.88
2022-12-08T19:52:24.490Z,99595.31
2022-12-08T19:54:52.143Z,99594.47
2022-12-08T19:57:20.465Z,99591.91
2022-12-08T19:59:53.017Z,99585.84
2022-12-08T20:02:23.835Z,99586.69
2022-12-08T20:04:51.933Z,99585.84
2022-12-08T20:07:20.215Z,99580.69
2022-12-08T20:09:49.209Z,99571.31
2022-12-08T20:12:16.918Z,99574.78
2022-12-08T20:14:46.201Z,99572.19
2022-12-08T20:17:14.190Z,99574.69
2022-12-08T20:19:41.908Z,99576.34
2022-12-08T20:22:09.568Z,99569.59
2022-12-08T20:24:37.356Z,99574.75
2022-12-08T20:27:06.452Z,99574.75
2022-12-08T20:29:34.383Z,99570.56
2022-12-08T20:32:02.132Z,99575.66
2022-12-08T20:34:31.221Z,99571.41
2022-12-08T20:36:59.177Z,99576.59
2022-12-08T20:39:26.877Z,99574.91
2022-12-08T20:41:55.949Z,99580.13
2022-12-08T20:44:25.219Z,99579.28
2022-12-08T20:46:52.907Z,99574.13
2022-12-08T20:49:20.664Z,99578.47
2022-12-08T20:51:48.293Z,99581.91
2022-12-08T20:54:16.294Z,99572.53
2022-12-08T20:56:48.399Z,99577.72
2022-12-08T20:59:17.764Z,99582.00
2022-12-08T21:01:47.228Z,99581.09
2022-12-08T21:04:15.384Z,99580.28
2022-12-08T21:06:43.209Z,99577.72
2022-12-08T21:09:10.992Z,99581.06
2022-12-08T21:11:39.041Z,99578.47
2022-12-08T21:14:07.695Z,99577.44
2022-12-08T21:16:35.623Z,99579.09
2022-12-08T21:19:05.819Z,99575.75
2022-12-08T21:21:33.585Z,99572.34
2022-12-08T21:24:01.433Z,99577.31
2022-12-08T21:26:29.181Z,99573.69
2022-12-08T21:28:58.876Z,99575.28
2022-12-08T21:31:29.356Z,99569.22
2022-12-08T21:33:57.329Z,99577.00
2022-12-08T21:36:26.549Z,99575.38
2022-12-08T21:38:54.591Z,99573.00
2022-12-08T21:41:38.674Z,99581.63
2022-12-08T21:44:07.332Z,99580.81
2022-12-08T21:46:35.624Z,99584.22
2022-12-08T21:49:04.765Z,99574.72
2022-12-08T21:51:37.510Z,99582.44
2022-12-08T21:54:05.786Z,99575.56
2022-12-08T21:56:33.628Z,99581.50
2022-12-08T21:59:01.523Z,99579.75
2022-12-08T22:01:29.581Z,99579.09
2022-12-08T22:03:57.579Z,99582.56
2022-12-08T22:06:25.793Z,99584.22
2022-12-08T22:08:55.909Z,99581.75
2022-12-08T22:11:24.249Z,99580.03
2022-12-08T22:13:52.088Z,99582.66
2022-12-08T22:16:19.916Z,99582.63
2022-12-08T22:18:48.155Z,99579.16
2022-12-08T22:21:17.726Z,99581.75
2022-12-08T22:23:46.046Z,99574.03
2022-12-08T22:26:15.160Z,99562.84
2022-12-08T22:28:44.447Z,99575.66
2022-12-08T22:31:14.338Z,99571.28
2022-12-08T22:33:43.117Z,99571.19
2022-12-08T22:36:15.636Z,99570.28
2022-12-08T22:38:43.264Z,99572.81
2022-12-08T22:41:11.129Z,99572.03
2022-12-08T22:43:40.568Z,99573.03
2022-12-08T22:46:12.108Z,99573.94
2022-12-08T22:48:40.494Z,99574.88
2022-12-08T22:51:08.701Z,99572.25
2022-12-08T22:53:36.575Z,99569.69
2022-12-08T22:56:05.088Z,99564.63
2022-12-08T22:58:32.925Z,99559.47
2022-12-08T23:01:02.525Z,99554.34
2022-12-08T23:03:30.924Z,99555.22
2022-12-08T23:05:58.974Z,99557.03
2022-12-08T23:08:27.196Z,99558.81
2022-12-08T23:10:55.296Z,99555.44
2022-12-08T23:13:23.350Z,99552.06
2022-12-08T23:15:51.270Z,99554.63
2022-12-08T23:18:20.690Z,99543.41
2022-12-08T23:20:48.412Z,99544.19
2022-12-08T23:23:17.499Z,99537.41
2022-12-08T23:25:45.248Z,99540.88
2022-12-08T23:28:13.217Z,99538.38
2022-12-08T23:30:42.079Z,99536.59
2022-12-08T23:33:09.919Z,99538.31
2022-12-08T23:35:39.078Z,99538.28
2022-12-08T23:38:07.485Z,99535.72
2022-12-08T23:40:35.263Z,99532.28
2022-12-08T23:43:03.104Z,99522.06
2022-12-08T23:45:31.253Z,99528.94
2022-12-08T23:47:59.116Z,99517.84
2022-12-08T23:50:26.811Z,99515.31
2022-12-08T23:52:55.830Z,99519.59
2022-12-08T23:55:23.685Z,99515.28
2022-12-08T23:57:51.554Z,99510.88
